sensor_id;sensor_type;location;lat;lon;timestamp;P1;durP1;ratioP1;P2;durP2;ratioP2
60851;SDS011;48553;50.766;2.900;2022-09-09T00:05:30;4.05;;;1.20;;
60851;SDS011;48553;50.766;2.900;2022-09-09T00:08:51;3.92;;;1.05;;
60851;SDS011;48553;50.766;2.900;2022-09-09T00:12:00;2.60;;;1.02;;
60851;SDS011;48553;50.766;2.900;2022-09-09T00:15:19;4.05;;;1.00;;
60851;SDS011;48553;50.766;2.900;2022-09-09T00:21:47;1.70;;;0.70;;
60851;SDS011;48553;50.766;2.900;2022-09-09T00:24:53;3.20;;;0.70;;
60851;SDS011;48553;50.766;2.900;2022-09-09T00:27:55;4.93;;;0.98;;
60851;SDS011;48553;50.766;2.900;2022-09-09T00:30:56;3.53;;;0.77;;
60851;SDS011;48553;50.766;2.900;2022-09-09T00:34:08;2.42;;;0.90;;
60851;SDS011;48553;50.766;2.900;2022-09-09T00:37:20;2.30;;;0.90;;
60851;SDS011;48553;50.766;2.900;2022-09-09T00:40:32;3.78;;;0.98;;
60851;SDS011;48553;50.766;2.900;2022-09-09T00:43:38;2.65;;;0.80;;
60851;SDS011;48553;50.766;2.900;2022-09-09T01:00:35;2.63;;;0.70;;
60851;SDS011;48553;50.766;2.900;2022-09-09T01:07:20;3.35;;;0.80;;
60851;SDS011;48553;50.766;2.900;2022-09-09T01:10:29;4.88;;;0.98;;
60851;SDS011;48553;50.766;2.900;2022-09-09T01:13:32;7.22;;;1.17;;
60851;SDS011;48553;50.766;2.900;2022-09-09T01:16:34;5.45;;;0.98;;
60851;SDS011;48553;50.766;2.900;2022-09-09T01:22:52;3.55;;;0.90;;
60851;SDS011;48553;50.766;2.900;2022-09-09T01:29:25;3.90;;;0.90;;
60851;SDS011;48553;50.766;2.900;2022-09-09T01:32:43;2.72;;;0.88;;
60851;SDS011;48553;50.766;2.900;2022-09-09T01:35:59;5.47;;;0.98;;
60851;SDS011;48553;50.766;2.900;2022-09-09T01:39:04;3.45;;;0.80;;
60851;SDS011;48553;50.766;2.900;2022-09-09T01:42:06;4.70;;;0.90;;
60851;SDS011;48553;50.766;2.900;2022-09-09T01:45:08;5.05;;;1.00;;
60851;SDS011;48553;50.766;2.900;2022-09-09T01:48:09;4.72;;;1.13;;
60851;SDS011;48553;50.766;2.900;2022-09-09T01:51:09;4.60;;;1.02;;
60851;SDS011;48553;50.766;2.900;2022-09-09T01:54:10;2.72;;;0.85;;
60851;SDS011;48553;50.766;2.900;2022-09-09T02:00:24;4.97;;;0.98;;
60851;SDS011;48553;50.766;2.900;2022-09-09T02:03:27;5.50;;;1.05;;
60851;SDS011;48553;50.766;2.900;2022-09-09T02:06:30;5.38;;;0.90;;
60851;SDS011;48553;50.766;2.900;2022-09-09T02:09:37;3.20;;;1.00;;
60851;SDS011;48553;50.766;2.900;2022-09-09T02:12:42;5.05;;;1.08;;
60851;SDS011;48553;50.766;2.900;2022-09-09T02:19:26;4.50;;;1.08;;
60851;SDS011;48553;50.766;2.900;2022-09-09T02:22:30;6.15;;;1.25;;
60851;SDS011;48553;50.766;2.900;2022-09-09T02:25:34;5.07;;;1.20;;
60851;SDS011;48553;50.766;2.900;2022-09-09T02:28:36;5.18;;;1.00;;
60851;SDS011;48553;50.766;2.900;2022-09-09T02:31:39;7.05;;;1.10;;
60851;SDS011;48553;50.766;2.900;2022-09-09T02:34:43;6.72;;;1.00;;
60851;SDS011;48553;50.766;2.900;2022-09-09T02:37:47;4.22;;;1.10;;
60851;SDS011;48553;50.766;2.900;2022-09-09T02:40:50;5.72;;;1.38;;
60851;SDS011;48553;50.766;2.900;2022-09-09T02:43:50;3.38;;;1.17;;
60851;SDS011;48553;50.766;2.900;2022-09-09T02:50:13;9.05;;;1.45;;
60851;SDS011;48553;50.766;2.900;2022-09-09T02:56:21;3.22;;;1.10;;
60851;SDS011;48553;50.766;2.900;2022-09-09T02:59:25;9.20;;;1.70;;
60851;SDS011;48553;50.766;2.900;2022-09-09T03:02:26;7.07;;;1.45;;
60851;SDS011;48553;50.766;2.900;2022-09-09T03:05:27;7.18;;;1.38;;
60851;SDS011;48553;50.766;2.900;2022-09-09T03:08:27;7.28;;;1.40;;
60851;SDS011;48553;50.766;2.900;2022-09-09T03:11:28;6.70;;;1.38;;
60851;SDS011;48553;50.766;2.900;2022-09-09T03:14:28;7.53;;;1.45;;
60851;SDS011;48553;50.766;2.900;2022-09-09T03:17:30;4.70;;;1.30;;
60851;SDS011;48553;50.766;2.900;2022-09-09T03:20:30;4.68;;;1.08;;
60851;SDS011;48553;50.766;2.900;2022-09-09T03:23:31;7.82;;;1.48;;
60851;SDS011;48553;50.766;2.900;2022-09-09T03:26:31;8.68;;;1.38;;
60851;SDS011;48553;50.766;2.900;2022-09-09T03:29:32;7.22;;;1.40;;
60851;SDS011;48553;50.766;2.900;2022-09-09T03:32:32;7.47;;;1.38;;
60851;SDS011;48553;50.766;2.900;2022-09-09T03:35:33;6.00;;;1.25;;
60851;SDS011;48553;50.766;2.900;2022-09-09T03:38:34;6.63;;;1.45;;
60851;SDS011;48553;50.766;2.900;2022-09-09T03:41:34;9.00;;;1.50;;
60851;SDS011;48553;50.766;2.900;2022-09-09T03:44:34;5.13;;;1.40;;
60851;SDS011;48553;50.766;2.900;2022-09-09T03:47:35;6.65;;;1.25;;
60851;SDS011;48553;50.766;2.900;2022-09-09T03:50:36;5.10;;;1.30;;
60851;SDS011;48553;50.766;2.900;2022-09-09T03:53:36;9.23;;;1.75;;
60851;SDS011;48553;50.766;2.900;2022-09-09T03:56:38;5.88;;;1.63;;
60851;SDS011;48553;50.766;2.900;2022-09-09T03:59:38;7.35;;;1.25;;
60851;SDS011;48553;50.766;2.900;2022-09-09T04:02:39;7.32;;;1.40;;
60851;SDS011;48553;50.766;2.900;2022-09-09T04:05:39;6.28;;;1.40;;
60851;SDS011;48553;50.766;2.900;2022-09-09T04:08:42;7.38;;;1.50;;
60851;SDS011;48553;50.766;2.900;2022-09-09T04:11:42;7.22;;;1.48;;
60851;SDS011;48553;50.766;2.900;2022-09-09T04:14:43;7.90;;;1.52;;
60851;SDS011;48553;50.766;2.900;2022-09-09T04:17:43;7.85;;;1.60;;
60851;SDS011;48553;50.766;2.900;2022-09-09T04:20:45;7.47;;;1.40;;
60851;SDS011;48553;50.766;2.900;2022-09-09T04:23:46;10.88;;;1.80;;
60851;SDS011;48553;50.766;2.900;2022-09-09T04:26:47;7.00;;;1.42;;
60851;SDS011;48553;50.766;2.900;2022-09-09T04:29:47;8.13;;;1.40;;
60851;SDS011;48553;50.766;2.900;2022-09-09T04:32:48;8.00;;;1.63;;
60851;SDS011;48553;50.766;2.900;2022-09-09T04:35:49;7.35;;;1.40;;
60851;SDS011;48553;50.766;2.900;2022-09-09T04:38:50;7.45;;;1.50;;
60851;SDS011;48553;50.766;2.900;2022-09-09T04:41:50;7.88;;;1.45;;
60851;SDS011;48553;50.766;2.900;2022-09-09T04:44:51;7.93;;;1.30;;
60851;SDS011;48553;50.766;2.900;2022-09-09T04:47:51;5.38;;;1.38;;
60851;SDS011;48553;50.766;2.900;2022-09-09T04:50:59;6.38;;;1.67;;
60851;SDS011;48553;50.766;2.900;2022-09-09T04:54:01;8.13;;;1.40;;
60851;SDS011;48553;50.766;2.900;2022-09-09T04:57:01;5.70;;;1.63;;
60851;SDS011;48553;50.766;2.900;2022-09-09T05:00:02;7.68;;;1.50;;
60851;SDS011;48553;50.766;2.900;2022-09-09T05:03:04;5.35;;;1.40;;
60851;SDS011;48553;50.766;2.900;2022-09-09T05:06:09;6.05;;;1.45;;
60851;SDS011;48553;50.766;2.900;2022-09-09T05:09:11;6.50;;;1.42;;
60851;SDS011;48553;50.766;2.900;2022-09-09T05:12:12;7.55;;;1.42;;
60851;SDS011;48553;50.766;2.900;2022-09-09T05:15:12;6.38;;;1.50;;
60851;SDS011;48553;50.766;2.900;2022-09-09T05:18:12;6.07;;;1.60;;
60851;SDS011;48553;50.766;2.900;2022-09-09T05:21:14;9.35;;;1.70;;
60851;SDS011;48553;50.766;2.900;2022-09-09T05:24:16;6.32;;;1.48;;
60851;SDS011;48553;50.766;2.900;2022-09-09T05:27:17;7.43;;;1.42;;
60851;SDS011;48553;50.766;2.900;2022-09-09T05:30:19;6.30;;;1.60;;
60851;SDS011;48553;50.766;2.900;2022-09-09T05:33:20;8.20;;;1.42;;
60851;SDS011;48553;50.766;2.900;2022-09-09T05:36:21;6.25;;;1.40;;
60851;SDS011;48553;50.766;2.900;2022-09-09T05:39:22;8.68;;;1.67;;
60851;SDS011;48553;50.766;2.900;2022-09-09T05:42:23;8.77;;;1.63;;
60851;SDS011;48553;50.766;2.900;2022-09-09T05:45:23;7.63;;;1.75;;
60851;SDS011;48553;50.766;2.900;2022-09-09T05:48:24;6.32;;;1.50;;
60851;SDS011;48553;50.766;2.900;2022-09-09T05:51:25;5.68;;;1.70;;
60851;SDS011;48553;50.766;2.900;2022-09-09T05:54:28;6.95;;;1.65;;
60851;SDS011;48553;50.766;2.900;2022-09-09T05:57:28;7.65;;;1.30;;
60851;SDS011;48553;50.766;2.900;2022-09-09T06:00:28;7.03;;;1.60;;
60851;SDS011;48553;50.766;2.900;2022-09-09T06:03:31;5.35;;;1.58;;
60851;SDS011;48553;50.766;2.900;2022-09-09T06:06:33;6.55;;;1.60;;
60851;SDS011;48553;50.766;2.900;2022-09-09T06:09:36;6.13;;;1.50;;
60851;SDS011;48553;50.766;2.900;2022-09-09T06:12:36;7.13;;;1.50;;
60851;SDS011;48553;50.766;2.900;2022-09-09T06:15:37;8.13;;;1.65;;
60851;SDS011;48553;50.766;2.900;2022-09-09T06:18:38;5.43;;;1.55;;
60851;SDS011;48553;50.766;2.900;2022-09-09T06:21:39;6.20;;;1.70;;
60851;SDS011;48553;50.766;2.900;2022-09-09T06:24:40;10.15;;;1.95;;
60851;SDS011;48553;50.766;2.900;2022-09-09T06:27:40;6.95;;;1.40;;
60851;SDS011;48553;50.766;2.900;2022-09-09T06:30:42;7.47;;;1.38;;
60851;SDS011;48553;50.766;2.900;2022-09-09T06:33:42;7.00;;;1.52;;
60851;SDS011;48553;50.766;2.900;2022-09-09T06:36:43;7.68;;;1.83;;
60851;SDS011;48553;50.766;2.900;2022-09-09T06:39:45;7.15;;;2.00;;
60851;SDS011;48553;50.766;2.900;2022-09-09T06:42:46;7.20;;;1.52;;
60851;SDS011;48553;50.766;2.900;2022-09-09T06:45:53;8.85;;;1.83;;
60851;SDS011;48553;50.766;2.900;2022-09-09T06:48:57;4.95;;;1.45;;
60851;SDS011;48553;50.766;2.900;2022-09-09T06:51:59;6.22;;;1.70;;
60851;SDS011;48553;50.766;2.900;2022-09-09T06:55:00;7.10;;;1.60;;
60851;SDS011;48553;50.766;2.900;2022-09-09T06:58:00;6.35;;;1.73;;
60851;SDS011;48553;50.766;2.900;2022-09-09T07:01:04;4.90;;;1.40;;
60851;SDS011;48553;50.766;2.900;2022-09-09T07:04:06;6.85;;;1.63;;
60851;SDS011;48553;50.766;2.900;2022-09-09T07:07:08;6.40;;;1.60;;
60851;SDS011;48553;50.766;2.900;2022-09-09T07:10:12;4.65;;;1.40;;
60851;SDS011;48553;50.766;2.900;2022-09-09T07:13:12;5.65;;;1.70;;
60851;SDS011;48553;50.766;2.900;2022-09-09T07:16:16;7.53;;;1.80;;
60851;SDS011;48553;50.766;2.900;2022-09-09T07:19:18;5.45;;;1.33;;
60851;SDS011;48553;50.766;2.900;2022-09-09T07:22:18;5.03;;;1.50;;
60851;SDS011;48553;50.766;2.900;2022-09-09T07:25:20;6.25;;;1.58;;
60851;SDS011;48553;50.766;2.900;2022-09-09T07:28:21;4.90;;;1.50;;
60851;SDS011;48553;50.766;2.900;2022-09-09T07:31:26;5.88;;;1.48;;
60851;SDS011;48553;50.766;2.900;2022-09-09T07:34:30;5.03;;;1.52;;
60851;SDS011;48553;50.766;2.900;2022-09-09T07:37:30;4.45;;;1.40;;
60851;SDS011;48553;50.766;2.900;2022-09-09T07:40:31;5.45;;;1.30;;
60851;SDS011;48553;50.766;2.900;2022-09-09T07:43:31;5.45;;;1.60;;
60851;SDS011;48553;50.766;2.900;2022-09-09T07:46:33;5.32;;;1.50;;
60851;SDS011;48553;50.766;2.900;2022-09-09T07:49:34;5.40;;;1.25;;
60851;SDS011;48553;50.766;2.900;2022-09-09T07:52:35;4.70;;;1.45;;
60851;SDS011;48553;50.766;2.900;2022-09-09T07:55:35;4.43;;;1.30;;
60851;SDS011;48553;50.766;2.900;2022-09-09T07:58:37;5.25;;;1.52;;
60851;SDS011;48553;50.766;2.900;2022-09-09T08:01:40;6.20;;;1.50;;
60851;SDS011;48553;50.766;2.900;2022-09-09T08:04:43;5.87;;;1.27;;
60851;SDS011;48553;50.766;2.900;2022-09-09T08:07:43;4.03;;;1.45;;
60851;SDS011;48553;50.766;2.900;2022-09-09T08:10:44;3.72;;;1.30;;
60851;SDS011;48553;50.766;2.900;2022-09-09T08:13:44;4.45;;;1.40;;
60851;SDS011;48553;50.766;2.900;2022-09-09T08:16:46;3.42;;;1.08;;
60851;SDS011;48553;50.766;2.900;2022-09-09T08:19:47;5.13;;;1.35;;
60851;SDS011;48553;50.766;2.900;2022-09-09T08:22:48;4.53;;;1.30;;
60851;SDS011;48553;50.766;2.900;2022-09-09T08:25:49;3.60;;;1.35;;
60851;SDS011;48553;50.766;2.900;2022-09-09T08:28:51;3.30;;;0.95;;
60851;SDS011;48553;50.766;2.900;2022-09-09T08:31:53;4.38;;;1.30;;
60851;SDS011;48553;50.766;2.900;2022-09-09T08:34:57;3.15;;;1.15;;
60851;SDS011;48553;50.766;2.900;2022-09-09T08:37:57;5.22;;;1.13;;
60851;SDS011;48553;50.766;2.900;2022-09-09T08:41:01;4.22;;;1.10;;
60851;SDS011;48553;50.766;2.900;2022-09-09T08:50:39;4.88;;;1.05;;
60851;SDS011;48553;50.766;2.900;2022-09-09T08:53:42;2.65;;;1.10;;
60851;SDS011;48553;50.766;2.900;2022-09-09T08:56:47;2.33;;;0.82;;
60851;SDS011;48553;50.766;2.900;2022-09-09T08:59:49;2.53;;;0.90;;
60851;SDS011;48553;50.766;2.900;2022-09-09T09:02:56;3.22;;;0.95;;
60851;SDS011;48553;50.766;2.900;2022-09-09T09:09:57;2.13;;;0.88;;
60851;SDS011;48553;50.766;2.900;2022-09-09T09:13:18;3.60;;;1.00;;
60851;SDS011;48553;50.766;2.900;2022-09-09T09:16:30;2.25;;;0.80;;
60851;SDS011;48553;50.766;2.900;2022-09-09T09:19:38;1.83;;;0.82;;
60851;SDS011;48553;50.766;2.900;2022-09-09T09:25:47;4.68;;;0.90;;
60851;SDS011;48553;50.766;2.900;2022-09-09T09:28:50;3.25;;;0.90;;
60851;SDS011;48553;50.766;2.900;2022-09-09T09:31:55;3.65;;;0.90;;
60851;SDS011;48553;50.766;2.900;2022-09-09T09:34:58;3.55;;;0.98;;
60851;SDS011;48553;50.766;2.900;2022-09-09T09:38:01;2.00;;;0.90;;
60851;SDS011;48553;50.766;2.900;2022-09-09T09:41:03;3.15;;;0.85;;
60851;SDS011;48553;50.766;2.900;2022-09-09T09:44:04;3.45;;;1.00;;
60851;SDS011;48553;50.766;2.900;2022-09-09T09:47:07;2.58;;;0.90;;
60851;SDS011;48553;50.766;2.900;2022-09-09T09:50:17;3.83;;;0.85;;
60851;SDS011;48553;50.766;2.900;2022-09-09T09:53:27;2.25;;;0.80;;
60851;SDS011;48553;50.766;2.900;2022-09-09T09:56:31;3.60;;;0.80;;
60851;SDS011;48553;50.766;2.900;2022-09-09T09:59:33;3.15;;;0.90;;
60851;SDS011;48553;50.766;2.900;2022-09-09T10:02:39;2.28;;;0.73;;
60851;SDS011;48553;50.766;2.900;2022-09-09T10:05:45;3.35;;;0.98;;
60851;SDS011;48553;50.766;2.900;2022-09-09T10:08:46;2.47;;;0.73;;
60851;SDS011;48553;50.766;2.900;2022-09-09T10:22:22;2.72;;;0.80;;
60851;SDS011;48553;50.766;2.900;2022-09-09T10:35:56;4.07;;;0.70;;
60851;SDS011;48553;50.766;2.900;2022-09-09T10:39:12;2.28;;;0.70;;
60851;SDS011;48553;50.766;2.900;2022-09-09T10:42:35;2.35;;;0.70;;
60851;SDS011;48553;50.766;2.900;2022-09-09T10:49:51;2.45;;;0.80;;
60851;SDS011;48553;50.766;2.900;2022-09-09T10:55:52;2.15;;;0.70;;
60851;SDS011;48553;50.766;2.900;2022-09-09T10:58:59;6.07;;;0.80;;
60851;SDS011;48553;50.766;2.900;2022-09-09T11:02:28;2.83;;;0.80;;
60851;SDS011;48553;50.766;2.900;2022-09-09T11:05:42;2.97;;;0.80;;
60851;SDS011;48553;50.766;2.900;2022-09-09T11:08:47;3.17;;;0.75;;
60851;SDS011;48553;50.766;2.900;2022-09-09T11:11:53;3.22;;;1.00;;
60851;SDS011;48553;50.766;2.900;2022-09-09T11:14:59;2.58;;;0.85;;
60851;SDS011;48553;50.766;2.900;2022-09-09T11:18:21;4.38;;;1.00;;
60851;SDS011;48553;50.766;2.900;2022-09-09T11:21:24;4.00;;;0.98;;
60851;SDS011;48553;50.766;2.900;2022-09-09T11:27:59;5.10;;;1.05;;
60851;SDS011;48553;50.766;2.900;2022-09-09T11:34:49;3.13;;;1.05;;
60851;SDS011;48553;50.766;2.900;2022-09-09T11:41:09;2.95;;;0.95;;
60851;SDS011;48553;50.766;2.900;2022-09-09T11:44:10;1.63;;;0.95;;
60851;SDS011;48553;50.766;2.900;2022-09-09T11:47:26;2.92;;;1.27;;
60851;SDS011;48553;50.766;2.900;2022-09-09T11:50:33;3.72;;;1.10;;
60851;SDS011;48553;50.766;2.900;2022-09-09T11:57:01;5.43;;;1.30;;
60851;SDS011;48553;50.766;2.900;2022-09-09T12:00:03;4.32;;;1.40;;
60851;SDS011;48553;50.766;2.900;2022-09-09T12:03:04;5.30;;;1.30;;
60851;SDS011;48553;50.766;2.900;2022-09-09T12:06:17;3.45;;;1.25;;
60851;SDS011;48553;50.766;2.900;2022-09-09T12:13:22;5.30;;;1.30;;
60851;SDS011;48553;50.766;2.900;2022-09-09T12:16:31;4.13;;;1.23;;
60851;SDS011;48553;50.766;2.900;2022-09-09T12:19:38;4.03;;;1.23;;
60851;SDS011;48553;50.766;2.900;2022-09-09T12:26:05;3.65;;;1.23;;
60851;SDS011;48553;50.766;2.900;2022-09-09T12:32:38;4.32;;;1.50;;
60851;SDS011;48553;50.766;2.900;2022-09-09T12:35:39;5.30;;;1.85;;
60851;SDS011;48553;50.766;2.900;2022-09-09T12:38:43;5.75;;;1.60;;
60851;SDS011;48553;50.766;2.900;2022-09-09T12:41:51;5.13;;;1.35;;
60851;SDS011;48553;50.766;2.900;2022-09-09T12:45:00;4.35;;;1.58;;
60851;SDS011;48553;50.766;2.900;2022-09-09T12:48:04;3.97;;;1.40;;
60851;SDS011;48553;50.766;2.900;2022-09-09T12:51:07;5.05;;;1.60;;
60851;SDS011;48553;50.766;2.900;2022-09-09T12:54:19;7.82;;;1.80;;
60851;SDS011;48553;50.766;2.900;2022-09-09T12:57:21;4.03;;;1.60;;
60851;SDS011;48553;50.766;2.900;2022-09-09T13:00:27;3.03;;;1.50;;
60851;SDS011;48553;50.766;2.900;2022-09-09T13:03:28;5.68;;;1.23;;
60851;SDS011;48553;50.766;2.900;2022-09-09T13:06:29;4.05;;;1.50;;
60851;SDS011;48553;50.766;2.900;2022-09-09T13:09:30;4.78;;;1.52;;
60851;SDS011;48553;50.766;2.900;2022-09-09T13:12:31;4.47;;;1.20;;
60851;SDS011;48553;50.766;2.900;2022-09-09T13:15:32;1.80;;;0.95;;
60851;SDS011;48553;50.766;2.900;2022-09-09T13:18:36;5.13;;;1.10;;
60851;SDS011;48553;50.766;2.900;2022-09-09T13:21:40;2.78;;;1.10;;
60851;SDS011;48553;50.766;2.900;2022-09-09T13:24:40;3.60;;;0.90;;
60851;SDS011;48553;50.766;2.900;2022-09-09T13:27:50;2.25;;;0.80;;
60851;SDS011;48553;50.766;2.900;2022-09-09T13:34:10;4.50;;;1.00;;
60851;SDS011;48553;50.766;2.900;2022-09-09T13:40:31;2.20;;;0.90;;
60851;SDS011;48553;50.766;2.900;2022-09-09T13:43:34;3.83;;;0.85;;
60851;SDS011;48553;50.766;2.900;2022-09-09T13:46:38;2.97;;;0.80;;
60851;SDS011;48553;50.766;2.900;2022-09-09T13:49:41;2.80;;;0.77;;
60851;SDS011;48553;50.766;2.900;2022-09-09T13:52:42;2.70;;;0.90;;
60851;SDS011;48553;50.766;2.900;2022-09-09T13:55:42;3.17;;;0.82;;
60851;SDS011;48553;50.766;2.900;2022-09-09T13:58:42;2.90;;;1.13;;
60851;SDS011;48553;50.766;2.900;2022-09-09T14:01:43;3.10;;;1.20;;
60851;SDS011;48553;50.766;2.900;2022-09-09T14:04:44;3.88;;;1.70;;
60851;SDS011;48553;50.766;2.900;2022-09-09T14:07:45;3.10;;;1.00;;
60851;SDS011;48553;50.766;2.900;2022-09-09T14:10:45;3.05;;;1.10;;
60851;SDS011;48553;50.766;2.900;2022-09-09T14:13:46;5.30;;;1.40;;
60851;SDS011;48553;50.766;2.900;2022-09-09T14:16:46;3.75;;;1.23;;
60851;SDS011;48553;50.766;2.900;2022-09-09T14:19:47;4.47;;;1.20;;
60851;SDS011;48553;50.766;2.900;2022-09-09T14:22:48;4.57;;;1.30;;
60851;SDS011;48553;50.766;2.900;2022-09-09T14:25:48;3.38;;;1.35;;
60851;SDS011;48553;50.766;2.900;2022-09-09T14:28:49;4.82;;;1.40;;
60851;SDS011;48553;50.766;2.900;2022-09-09T14:31:50;4.47;;;1.60;;
60851;SDS011;48553;50.766;2.900;2022-09-09T14:34:50;4.82;;;1.92;;
60851;SDS011;48553;50.766;2.900;2022-09-09T14:37:50;3.40;;;1.70;;
60851;SDS011;48553;50.766;2.900;2022-09-09T14:40:51;4.13;;;2.15;;
60851;SDS011;48553;50.766;2.900;2022-09-09T14:43:52;5.90;;;2.20;;
60851;SDS011;48553;50.766;2.900;2022-09-09T14:46:53;3.13;;;1.65;;
60851;SDS011;48553;50.766;2.900;2022-09-09T14:49:54;2.72;;;1.23;;
60851;SDS011;48553;50.766;2.900;2022-09-09T14:52:54;3.65;;;1.58;;
60851;SDS011;48553;50.766;2.900;2022-09-09T14:56:02;4.45;;;2.25;;
60851;SDS011;48553;50.766;2.900;2022-09-09T14:59:07;5.32;;;2.70;;
60851;SDS011;48553;50.766;2.900;2022-09-09T15:02:08;3.80;;;1.50;;
60851;SDS011;48553;50.766;2.900;2022-09-09T15:05:09;5.07;;;1.75;;
60851;SDS011;48553;50.766;2.900;2022-09-09T15:08:10;3.65;;;1.20;;
60851;SDS011;48553;50.766;2.900;2022-09-09T15:11:11;3.58;;;1.08;;
60851;SDS011;48553;50.766;2.900;2022-09-09T15:14:12;3.28;;;0.80;;
60851;SDS011;48553;50.766;2.900;2022-09-09T15:17:13;1.52;;;0.65;;
60851;SDS011;48553;50.766;2.900;2022-09-09T15:20:13;4.28;;;0.85;;
60851;SDS011;48553;50.766;2.900;2022-09-09T15:23:15;3.90;;;0.80;;
60851;SDS011;48553;50.766;2.900;2022-09-09T15:26:16;2.83;;;0.80;;
60851;SDS011;48553;50.766;2.900;2022-09-09T15:29:17;4.85;;;1.00;;
60851;SDS011;48553;50.766;2.900;2022-09-09T15:32:19;2.80;;;0.75;;
60851;SDS011;48553;50.766;2.900;2022-09-09T15:35:19;4.68;;;0.90;;
60851;SDS011;48553;50.766;2.900;2022-09-09T15:38:19;2.70;;;0.63;;
60851;SDS011;48553;50.766;2.900;2022-09-09T15:41:21;2.78;;;0.75;;
60851;SDS011;48553;50.766;2.900;2022-09-09T15:44:22;2.88;;;0.82;;
60851;SDS011;48553;50.766;2.900;2022-09-09T15:47:25;3.88;;;0.82;;
60851;SDS011;48553;50.766;2.900;2022-09-09T15:50:25;5.53;;;0.95;;
60851;SDS011;48553;50.766;2.900;2022-09-09T15:53:26;5.70;;;0.98;;
60851;SDS011;48553;50.766;2.900;2022-09-09T15:56:27;5.20;;;0.98;;
60851;SDS011;48553;50.766;2.900;2022-09-09T15:59:30;4.50;;;1.02;;
60851;SDS011;48553;50.766;2.900;2022-09-09T16:02:32;1.88;;;0.65;;
60851;SDS011;48553;50.766;2.900;2022-09-09T16:05:33;4.80;;;0.80;;
60851;SDS011;48553;50.766;2.900;2022-09-09T16:08:33;6.80;;;1.00;;
60851;SDS011;48553;50.766;2.900;2022-09-09T16:11:36;5.50;;;1.08;;
60851;SDS011;48553;50.766;2.900;2022-09-09T16:14:37;6.63;;;1.15;;
60851;SDS011;48553;50.766;2.900;2022-09-09T16:17:38;7.75;;;1.17;;
60851;SDS011;48553;50.766;2.900;2022-09-09T16:20:39;9.23;;;1.23;;
60851;SDS011;48553;50.766;2.900;2022-09-09T16:23:40;7.60;;;1.13;;
60851;SDS011;48553;50.766;2.900;2022-09-09T16:26:41;6.00;;;1.40;;
60851;SDS011;48553;50.766;2.900;2022-09-09T16:29:46;5.57;;;1.00;;
60851;SDS011;48553;50.766;2.900;2022-09-09T16:32:46;6.72;;;1.20;;
60851;SDS011;48553;50.766;2.900;2022-09-09T16:35:48;6.45;;;1.35;;
60851;SDS011;48553;50.766;2.900;2022-09-09T16:38:53;6.22;;;1.15;;
60851;SDS011;48553;50.766;2.900;2022-09-09T16:41:55;5.30;;;1.13;;
60851;SDS011;48553;50.766;2.900;2022-09-09T16:44:55;6.97;;;1.13;;
60851;SDS011;48553;50.766;2.900;2022-09-09T16:47:55;6.55;;;1.52;;
60851;SDS011;48553;50.766;2.900;2022-09-09T16:51:06;5.30;;;1.42;;
60851;SDS011;48553;50.766;2.900;2022-09-09T16:54:10;7.17;;;1.40;;
60851;SDS011;48553;50.766;2.900;2022-09-09T16:57:11;6.38;;;1.10;;
60851;SDS011;48553;50.766;2.900;2022-09-09T17:00:12;7.22;;;1.20;;
60851;SDS011;48553;50.766;2.900;2022-09-09T17:03:12;6.35;;;1.20;;
60851;SDS011;48553;50.766;2.900;2022-09-09T17:06:13;2.60;;;0.82;;
60851;SDS011;48553;50.766;2.900;2022-09-09T17:09:15;6.22;;;1.00;;
60851;SDS011;48553;50.766;2.900;2022-09-09T17:12:15;5.05;;;0.95;;
60851;SDS011;48553;50.766;2.900;2022-09-09T17:15:17;7.97;;;0.88;;
60851;SDS011;48553;50.766;2.900;2022-09-09T17:18:18;3.78;;;0.80;;
60851;SDS011;48553;50.766;2.900;2022-09-09T17:21:19;4.30;;;0.85;;
60851;SDS011;48553;50.766;2.900;2022-09-09T17:24:21;4.55;;;0.82;;
60851;SDS011;48553;50.766;2.900;2022-09-09T17:27:21;5.15;;;0.70;;
60851;SDS011;48553;50.766;2.900;2022-09-09T17:30:22;4.30;;;0.70;;
60851;SDS011;48553;50.766;2.900;2022-09-09T17:33:22;4.95;;;0.80;;
60851;SDS011;48553;50.766;2.900;2022-09-09T17:36:27;4.82;;;0.70;;
60851;SDS011;48553;50.766;2.900;2022-09-09T17:39:30;5.57;;;0.90;;
60851;SDS011;48553;50.766;2.900;2022-09-09T17:42:30;4.72;;;0.73;;
60851;SDS011;48553;50.766;2.900;2022-09-09T17:45:31;5.55;;;0.80;;
60851;SDS011;48553;50.766;2.900;2022-09-09T17:48:31;6.95;;;1.00;;
60851;SDS011;48553;50.766;2.900;2022-09-09T17:51:32;6.15;;;1.00;;
60851;SDS011;48553;50.766;2.900;2022-09-09T17:54:33;5.53;;;0.88;;
60851;SDS011;48553;50.766;2.900;2022-09-09T17:57:34;6.07;;;1.00;;
60851;SDS011;48553;50.766;2.900;2022-09-09T18:00:35;6.45;;;1.20;;
60851;SDS011;48553;50.766;2.900;2022-09-09T18:03:37;7.05;;;1.25;;
60851;SDS011;48553;50.766;2.900;2022-09-09T18:06:43;5.30;;;0.88;;
60851;SDS011;48553;50.766;2.900;2022-09-09T18:09:45;7.68;;;1.40;;
60851;SDS011;48553;50.766;2.900;2022-09-09T18:12:49;5.25;;;1.30;;
60851;SDS011;48553;50.766;2.900;2022-09-09T18:15:49;4.32;;;0.82;;
60851;SDS011;48553;50.766;2.900;2022-09-09T18:18:49;5.70;;;1.08;;
60851;SDS011;48553;50.766;2.900;2022-09-09T18:21:51;5.70;;;0.90;;
60851;SDS011;48553;50.766;2.900;2022-09-09T18:24:51;7.88;;;1.05;;
60851;SDS011;48553;50.766;2.900;2022-09-09T18:27:52;5.00;;;1.10;;
60851;SDS011;48553;50.766;2.900;2022-09-09T18:30:53;4.90;;;0.90;;
60851;SDS011;48553;50.766;2.900;2022-09-09T18:33:55;7.95;;;1.17;;
60851;SDS011;48553;50.766;2.900;2022-09-09T18:36:57;6.25;;;0.90;;
60851;SDS011;48553;50.766;2.900;2022-09-09T18:39:58;6.45;;;0.90;;
60851;SDS011;48553;50.766;2.900;2022-09-09T18:42:58;7.43;;;1.27;;
60851;SDS011;48553;50.766;2.900;2022-09-09T18:46:02;5.88;;;1.10;;
60851;SDS011;48553;50.766;2.900;2022-09-09T18:49:03;7.25;;;1.17;;
60851;SDS011;48553;50.766;2.900;2022-09-09T18:52:05;5.13;;;1.20;;
60851;SDS011;48553;50.766;2.900;2022-09-09T18:55:06;7.35;;;1.33;;
60851;SDS011;48553;50.766;2.900;2022-09-09T18:58:07;4.72;;;0.90;;
60851;SDS011;48553;50.766;2.900;2022-09-09T19:01:09;6.72;;;1.02;;
60851;SDS011;48553;50.766;2.900;2022-09-09T19:04:11;6.72;;;1.35;;
60851;SDS011;48553;50.766;2.900;2022-09-09T19:07:12;6.07;;;1.10;;
60851;SDS011;48553;50.766;2.900;2022-09-09T19:10:12;4.18;;;1.23;;
60851;SDS011;48553;50.766;2.900;2022-09-09T19:13:13;6.47;;;1.20;;
60851;SDS011;48553;50.766;2.900;2022-09-09T19:16:14;6.78;;;1.10;;
60851;SDS011;48553;50.766;2.900;2022-09-09T19:19:18;7.65;;;1.38;;
60851;SDS011;48553;50.766;2.900;2022-09-09T19:22:22;6.05;;;1.20;;
60851;SDS011;48553;50.766;2.900;2022-09-09T19:25:23;6.35;;;1.27;;
60851;SDS011;48553;50.766;2.900;2022-09-09T19:28:23;7.38;;;1.70;;
60851;SDS011;48553;50.766;2.900;2022-09-09T19:31:24;5.20;;;1.17;;
60851;SDS011;48553;50.766;2.900;2022-09-09T19:34:27;5.45;;;1.40;;
60851;SDS011;48553;50.766;2.900;2022-09-09T19:37:28;6.15;;;1.20;;
60851;SDS011;48553;50.766;2.900;2022-09-09T19:40:28;4.72;;;1.10;;
60851;SDS011;48553;50.766;2.900;2022-09-09T19:43:29;6.72;;;1.60;;
60851;SDS011;48553;50.766;2.900;2022-09-09T19:46:30;6.40;;;1.50;;
60851;SDS011;48553;50.766;2.900;2022-09-09T19:49:33;9.00;;;1.60;;
60851;SDS011;48553;50.766;2.900;2022-09-09T19:52:34;5.30;;;1.40;;
60851;SDS011;48553;50.766;2.900;2022-09-09T19:55:37;6.80;;;1.55;;
60851;SDS011;48553;50.766;2.900;2022-09-09T19:58:38;9.85;;;1.80;;
60851;SDS011;48553;50.766;2.900;2022-09-09T20:01:41;9.65;;;1.83;;
60851;SDS011;48553;50.766;2.900;2022-09-09T20:04:45;6.93;;;1.73;;
60851;SDS011;48553;50.766;2.900;2022-09-09T20:07:46;6.38;;;1.77;;
60851;SDS011;48553;50.766;2.900;2022-09-09T20:10:50;10.82;;;1.80;;
60851;SDS011;48553;50.766;2.900;2022-09-09T20:13:51;8.13;;;1.65;;
60851;SDS011;48553;50.766;2.900;2022-09-09T20:16:52;8.80;;;1.60;;
60851;SDS011;48553;50.766;2.900;2022-09-09T20:19:52;7.28;;;1.70;;